Time;durP1;ratioP1;P1;durP2;ratioP2;P2;SDS_P1;SDS_P2;PMS_P1;PMS_P2;Temp;Humidity;BMP_temperature;BMP_pressure;BME280_temperature;BME280_humidity;BME280_pressure;Samples;Min_cycle;Max_cycle;Signal;HPM_P1;HPM_P2
2023/08/02 00:00:32;;;;;;;6.65;1.23;;;14.20;99.90;;;;;;4994163;28;20023;-71
2023/08/02 00:02:58;;;;;;;3.25;1.20;;;14.10;99.90;;;;;;4993957;28;20034;-71
2023/08/02 00:05:23;;;;;;;2.80;1.05;;;14.10;99.90;;;;;;4993900;28;20030;-71
2023/08/02 00:07:49;;;;;;;2.15;1.10;;;14.10;99.90;;;;;;4994106;28;20034;-71
2023/08/02 00:10:14;;;;;;;1.83;0.93;;;14.20;99.90;;;;;;4993878;28;20109;-71
2023/08/02 00:12:40;;;;;;;1.77;0.80;;;14.20;99.90;;;;;;4993934;28;20400;-72
2023/08/02 00:15:06;;;;;;;2.50;1.10;;;14.20;99.90;;;;;;4993833;28;20437;-71
2023/08/02 00:17:32;;;;;;;2.33;1.02;;;14.30;99.90;;;;;;4993580;28;20518;-72
2023/08/02 00:19:57;;;;;;;2.13;1.30;;;14.30;99.90;;;;;;4993764;28;20085;-71
2023/08/02 00:22:23;;;;;;;1.85;1.00;;;14.30;99.90;;;;;;4995419;28;20026;-71
2023/08/02 00:24:49;;;;;;;2.47;1.13;;;14.30;99.90;;;;;;4997779;28;20472;-71
2023/08/02 00:27:14;;;;;;;2.33;1.17;;;14.30;99.90;;;;;;4997576;28;20037;-71
2023/08/02 00:29:40;;;;;;;2.00;1.30;;;14.30;99.90;;;;;;4997669;28;20037;-71
2023/08/02 00:32:06;;;;;;;2.67;1.30;;;14.30;99.90;;;;;;4998746;28;20361;-71
2023/08/02 00:34:32;;;;;;;1.77;1.10;;;14.30;99.90;;;;;;4996597;28;20038;-71
2023/08/02 00:36:58;;;;;;;2.90;1.17;;;14.30;99.90;;;;;;5002826;28;20038;-71
2023/08/02 00:39:23;;;;;;;2.08;0.98;;;14.30;99.90;;;;;;5015754;28;20026;-71
2023/08/02 00:41:49;;;;;;;1.77;0.93;;;14.30;99.90;;;;;;5017063;28;20476;-71
2023/08/02 00:44:15;;;;;;;2.30;0.88;;;14.30;99.90;;;;;;5017024;28;20034;-71
2023/08/02 00:46:41;;;;;;;1.52;0.85;;;14.30;99.90;;;;;;5016968;28;20022;-71
2023/08/02 00:49:09;;;;;;;2.15;1.00;;;14.30;99.90;;;;;;5017835;28;20025;-71
2023/08/02 00:51:35;;;;;;;3.30;0.98;;;14.20;99.90;;;;;;5016839;28;20034;-71
2023/08/02 00:54:02;;;;;;;2.60;1.08;;;14.30;99.90;;;;;;5016895;28;20033;-71
2023/08/02 00:56:31;;;;;;;2.00;1.23;;;14.30;99.90;;;;;;5015648;28;20423;-71
2023/08/02 00:58:57;;;;;;;2.28;1.25;;;14.30;99.90;;;;;;5016611;28;20057;-71
2023/08/02 01:01:24;;;;;;;5.60;1.20;;;14.30;99.90;;;;;;5016662;28;20032;-71
2023/08/02 01:03:50;;;;;;;2.78;1.20;;;14.20;99.90;;;;;;5016957;28;20026;-71
2023/08/02 01:06:28;;;;;;;2.10;1.30;;;14.10;99.90;;;;;;5016605;28;20030;-71
2023/08/02 01:09:02;;;;;;;1.83;1.05;;;14.20;99.90;;;;;;5016564;28;20113;-71
2023/08/02 01:11:39;;;;;;;1.98;1.10;;;14.10;99.90;;;;;;5016547;28;20053;-71
2023/08/02 01:14:06;;;;;;;3.40;1.10;;;14.10;99.90;;;;;;5016831;28;20026;-71
2023/08/02 01:16:35;;;;;;;2.40;1.10;;;14.10;99.90;;;;;;5016414;28;20069;-71
2023/08/02 01:19:00;;;;;;;2.35;1.08;;;14.10;99.90;;;;;;5016192;28;20042;-71
2023/08/02 01:21:26;;;;;;;1.60;1.00;;;14.10;99.90;;;;;;5016635;28;20030;-71
2023/08/02 01:23:52;;;;;;;1.35;0.75;;;14.10;99.90;;;;;;5017076;28;20030;-71
2023/08/02 01:26:20;;;;;;;2.25;1.10;;;14.10;99.90;;;;;;5017991;28;20026;-71
2023/08/02 01:28:51;;;;;;;3.38;1.40;;;14.10;99.90;;;;;;5016570;28;20017;-71
2023/08/02 01:31:16;;;;;;;2.10;1.08;;;14.10;99.90;;;;;;5016525;28;20105;-71
2023/08/02 01:33:48;;;;;;;1.25;0.77;;;14.10;99.90;;;;;;5015183;28;20088;-71
2023/08/02 01:36:14;;;;;;;3.70;1.30;;;14.10;99.90;;;;;;5016151;28;20157;-71
2023/08/02 01:38:40;;;;;;;2.15;0.98;;;14.10;99.90;;;;;;5016326;28;20033;-71
2023/08/02 01:41:06;;;;;;;2.10;1.23;;;14.00;99.90;;;;;;5016019;28;20029;-71
2023/08/02 01:43:31;;;;;;;3.28;1.10;;;14.00;99.90;;;;;;5016130;28;20029;-71
2023/08/02 01:45:57;;;;;;;2.53;1.13;;;13.90;99.90;;;;;;5016272;28;20459;-71
2023/08/02 01:48:23;;;;;;;3.78;1.20;;;13.90;99.90;;;;;;5014439;28;20087;-71
2023/08/02 01:50:49;;;;;;;3.70;1.83;;;13.80;99.90;;;;;;5016250;28;20391;-71
2023/08/02 01:53:14;;;;;;;3.53;2.10;;;13.70;99.90;;;;;;4998294;28;20040;-71
2023/08/02 01:55:40;;;;;;;3.38;2.33;;;13.70;99.90;;;;;;5015906;28;20034;-71
2023/08/02 01:58:06;;;;;;;3.55;2.38;;;13.60;99.90;;;;;;5015720;28;20432;-71
2023/08/02 02:00:31;;;;;;;5.70;3.00;;;13.60;99.90;;;;;;5015952;28;20065;-71
2023/08/02 02:02:57;;;;;;;6.32;3.50;;;13.70;99.90;;;;;;5015713;28;20030;-71
2023/08/02 02:05:26;;;;;;;5.30;3.40;;;13.70;99.90;;;;;;5015553;28;20388;-71
2023/08/02 02:07:51;;;;;;;6.93;3.97;;;13.70;99.90;;;;;;5015875;28;20480;-71
2023/08/02 02:10:17;;;;;;;5.30;3.38;;;13.70;99.90;;;;;;5015393;28;20096;-71
2023/08/02 02:12:43;;;;;;;4.50;3.05;;;13.70;99.90;;;;;;5015417;28;20030;-71
2023/08/02 02:15:08;;;;;;;7.05;2.90;;;13.70;99.90;;;;;;5015484;28;20034;-71
2023/08/02 02:17:34;;;;;;;4.35;2.30;;;13.70;99.90;;;;;;5016041;28;20137;-71
2023/08/02 02:20:00;;;;;;;5.40;2.90;;;13.70;99.90;;;;;;5015625;28;20034;-71
2023/08/02 02:22:26;;;;;;;4.22;2.83;;;13.70;99.90;;;;;;5015218;28;20045;-71
2023/08/02 02:24:51;;;;;;;3.15;2.47;;;13.70;99.90;;;;;;5015126;28;20034;-71
2023/08/02 02:27:17;;;;;;;3.80;2.20;;;13.70;99.90;;;;;;5014985;28;20037;-71
2023/08/02 02:29:42;;;;;;;4.07;1.95;;;13.60;99.90;;;;;;5015050;28;20030;-71
2023/08/02 02:32:08;;;;;;;4.78;1.60;;;13.60;99.90;;;;;;5014992;28;20080;-71
2023/08/02 02:34:34;;;;;;;2.78;1.85;;;13.60;99.90;;;;;;5014950;28;20033;-71
2023/08/02 02:36:59;;;;;;;3.08;1.40;;;13.60;99.90;;;;;;5014810;28;20113;-71
2023/08/02 02:39:25;;;;;;;3.60;1.40;;;13.60;99.90;;;;;;5014742;28;20030;-71
2023/08/02 02:41:51;;;;;;;2.53;1.20;;;13.60;99.90;;;;;;5014850;28;20026;-71
2023/08/02 02:44:16;;;;;;;2.47;1.38;;;13.60;99.90;;;;;;5015020;28;20030;-71
2023/08/02 02:46:42;;;;;;;2.83;1.48;;;13.60;99.90;;;;;;5014880;28;20022;-71
2023/08/02 02:49:08;;;;;;;1.83;1.10;;;13.60;99.90;;;;;;5015189;28;20069;-71
2023/08/02 02:51:33;;;;;;;2.63;1.83;;;13.60;99.90;;;;;;5014983;28;20053;-71
2023/08/02 02:53:59;;;;;;;4.15;2.00;;;13.60;99.90;;;;;;5014882;28;20476;-71
2023/08/02 02:56:24;;;;;;;3.58;2.20;;;13.60;99.90;;;;;;5014577;28;20492;-71
2023/08/02 02:58:50;;;;;;;3.10;1.90;;;13.50;99.90;;;;;;5014385;28;20108;-71
2023/08/02 03:01:17;;;;;;;3.30;1.83;;;13.50;99.90;;;;;;5014688;28;20108;-72
2023/08/02 03:03:42;;;;;;;2.50;1.70;;;13.50;99.90;;;;;;5014657;28;20424;-71
2023/08/02 03:06:08;;;;;;;3.13;1.60;;;13.50;99.90;;;;;;5014364;28;20026;-71
2023/08/02 03:08:34;;;;;;;2.38;1.48;;;13.50;99.90;;;;;;5014427;28;20065;-71
2023/08/02 03:10:59;;;;;;;3.30;1.50;;;13.50;99.90;;;;;;5013074;28;20036;-71
2023/08/02 03:13:25;;;;;;;2.50;1.70;;;13.50;99.90;;;;;;5013125;28;20125;-72
2023/08/02 03:15:51;;;;;;;4.05;1.80;;;13.50;99.90;;;;;;5014564;28;20022;-72
2023/08/02 03:18:16;;;;;;;2.85;1.77;;;13.40;99.90;;;;;;5012781;28;20103;-71
2023/08/02 03:20:42;;;;;;;5.45;2.10;;;13.40;99.90;;;;;;4996625;28;20124;-71
2023/08/02 03:23:09;;;;;;;4.03;1.88;;;13.40;99.90;;;;;;5014228;28;20033;-71
2023/08/02 03:25:35;;;;;;;5.03;2.10;;;13.40;99.90;;;;;;5013298;28;20399;-71
2023/08/02 03:28:01;;;;;;;3.47;1.85;;;13.40;99.90;;;;;;5014007;28;20030;-71
2023/08/02 03:30:26;;;;;;;2.60;1.50;;;13.30;99.90;;;;;;5014081;28;20499;-71
2023/08/02 03:32:52;;;;;;;2.65;1.50;;;13.20;99.90;;;;;;5012907;28;20061;-72
2023/08/02 03:35:18;;;;;;;3.45;1.52;;;13.20;99.90;;;;;;5013949;28;20120;-71
2023/08/02 03:37:43;;;;;;;3.47;1.70;;;13.30;99.90;;;;;;5013775;28;20038;-71
2023/08/02 03:40:10;;;;;;;2.63;1.65;;;13.30;99.90;;;;;;5012632;28;20030;-71
2023/08/02 03:42:35;;;;;;;3.05;1.60;;;13.30;99.90;;;;;;5013051;28;20026;-71
2023/08/02 03:45:03;;;;;;;2.70;1.63;;;13.20;99.90;;;;;;5014386;28;20530;-72
2023/08/02 03:47:28;;;;;;;2.95;1.55;;;13.20;99.90;;;;;;5013742;28;20037;-71
2023/08/02 03:49:54;;;;;;;3.40;2.15;;;13.10;99.90;;;;;;5013604;28;20037;-71
2023/08/02 03:52:20;;;;;;;2.65;1.70;;;13.00;99.90;;;;;;5013589;28;20062;-71
2023/08/02 03:54:45;;;;;;;3.35;1.63;;;13.00;99.90;;;;;;5013600;28;20480;-71
2023/08/02 03:57:11;;;;;;;3.63;1.40;;;12.90;99.90;;;;;;5012827;28;20037;-71
2023/08/02 03:59:37;;;;;;;2.30;1.30;;;12.90;99.90;;;;;;5013722;28;20072;-71
2023/08/02 04:02:03;;;;;;;2.25;1.58;;;12.80;99.90;;;;;;5013541;28;20524;-71
2023/08/02 04:04:28;;;;;;;3.25;1.42;;;12.80;99.90;;;;;;5013446;28;20484;-71
2023/08/02 04:06:54;;;;;;;2.47;1.35;;;12.90;99.90;;;;;;5013606;28;20026;-71
2023/08/02 04:09:20;;;;;;;2.30;1.33;;;12.80;99.90;;;;;;5024597;28;20053;-70
2023/08/02 04:11:45;;;;;;;2.58;1.52;;;12.90;99.90;;;;;;5012927;28;20026;-71
2023/08/02 04:14:11;;;;;;;3.42;1.77;;;12.90;99.90;;;;;;5013627;28;20062;-71
2023/08/02 04:16:37;;;;;;;2.90;1.80;;;13.00;99.90;;;;;;5012284;28;20022;-71
2023/08/02 04:19:02;;;;;;;4.47;2.42;;;13.00;99.90;;;;;;4998439;28;20048;-71
2023/08/02 04:21:28;;;;;;;7.03;2.47;;;13.00;99.90;;;;;;5015592;28;20109;-71
2023/08/02 04:23:54;;;;;;;4.60;2.10;;;13.00;99.90;;;;;;5013001;28;20022;-71
2023/08/02 04:26:19;;;;;;;4.68;2.00;;;12.90;99.90;;;;;;5011410;28;20026;-71
2023/08/02 04:28:46;;;;;;;4.00;1.85;;;12.90;99.90;;;;;;5013286;28;20029;-72
2023/08/02 04:31:12;;;;;;;4.63;1.60;;;13.00;99.90;;;;;;5013538;28;20053;-72
2023/08/02 04:33:38;;;;;;;6.13;2.03;;;13.00;99.90;;;;;;5011990;28;20037;-72
2023/08/02 04:36:04;;;;;;;4.10;1.65;;;13.00;99.90;;;;;;5013432;28;20041;-71
2023/08/02 04:38:30;;;;;;;3.60;1.90;;;13.00;99.90;;;;;;5013045;28;20026;-72
2023/08/02 04:40:57;;;;;;;5.20;2.22;;;13.10;99.90;;;;;;5013219;28;20033;-72
2023/08/02 04:43:23;;;;;;;6.07;2.10;;;13.10;99.90;;;;;;5013111;28;20018;-72
2023/08/02 04:45:51;;;;;;;3.03;1.80;;;13.10;99.90;;;;;;5013496;28;20022;-71
2023/08/02 04:48:17;;;;;;;2.45;1.38;;;13.10;99.90;;;;;;5012190;28;20369;-73
2023/08/02 04:50:43;;;;;;;4.07;1.45;;;13.10;99.90;;;;;;5013103;28;20032;-72
2023/08/02 04:53:09;;;;;;;2.75;1.48;;;13.20;99.90;;;;;;5013139;28;20022;-72
2023/08/02 04:55:43;;;;;;;3.67;1.70;;;13.20;99.90;;;;;;5013096;28;20069;-72
2023/08/02 04:58:09;;;;;;;3.95;1.55;;;13.20;99.90;;;;;;5012932;28;20500;-72
2023/08/02 05:00:35;;;;;;;2.85;1.40;;;13.10;99.90;;;;;;5013320;28;20018;-72
2023/08/02 05:03:00;;;;;;;3.15;1.40;;;13.20;99.90;;;;;;5013014;28;20499;-72
2023/08/02 05:05:26;;;;;;;3.28;1.48;;;13.20;99.90;;;;;;5012147;28;20022;-72
2023/08/02 05:07:51;;;;;;;3.03;1.52;;;13.20;99.90;;;;;;5013670;28;20037;-72
2023/08/02 05:10:17;;;;;;;2.92;1.40;;;13.20;99.90;;;;;;5016907;28;20032;-72
2023/08/02 05:12:43;;;;;;;2.50;1.27;;;13.30;99.90;;;;;;5016582;28;20034;-72
2023/08/02 05:15:08;;;;;;;3.13;1.38;;;13.30;99.90;;;;;;5016582;28;20034;-72
2023/08/02 05:17:34;;;;;;;2.38;1.30;;;13.30;99.90;;;;;;5016306;28;20038;-73
2023/08/02 05:20:00;;;;;;;3.22;1.45;;;13.40;99.90;;;;;;4998961;28;20484;-72
2023/08/02 05:22:25;;;;;;;2.65;1.20;;;13.50;99.90;;;;;;5016417;28;20034;-72
2023/08/02 05:24:52;;;;;;;2.67;1.73;;;13.50;99.90;;;;;;5016196;28;20033;-72
2023/08/02 05:27:18;;;;;;;2.47;1.50;;;13.50;99.90;;;;;;5016207;28;20034;-72
2023/08/02 05:29:44;;;;;;;2.53;1.35;;;13.50;99.90;;;;;;5015009;28;20030;-72
2023/08/02 05:32:10;;;;;;;3.17;1.60;;;13.50;99.90;;;;;;5016210;28;20060;-72
2023/08/02 05:34:35;;;;;;;2.95;1.77;;;13.50;99.90;;;;;;5016752;28;20038;-72
2023/08/02 05:37:01;;;;;;;2.60;1.73;;;13.50;99.90;;;;;;5016864;28;20146;-72
2023/08/02 05:39:27;;;;;;;3.10;1.80;;;13.50;99.90;;;;;;5015998;28;20496;-72
2023/08/02 05:41:53;;;;;;;3.05;2.08;;;13.50;99.90;;;;;;5015495;28;20022;-72
2023/08/02 05:44:18;;;;;;;3.47;2.20;;;13.50;99.90;;;;;;5015993;28;20100;-72
2023/08/02 05:46:44;;;;;;;3.15;2.03;;;13.60;99.90;;;;;;5016016;28;20074;-72
2023/08/02 05:49:10;;;;;;;4.35;2.50;;;13.60;99.90;;;;;;5015856;28;20029;-72
2023/08/02 05:51:35;;;;;;;4.55;2.47;;;13.50;99.90;;;;;;5016381;28;20025;-72
2023/08/02 05:54:01;;;;;;;3.88;2.22;;;13.60;99.90;;;;;;5016073;28;20030;-72
2023/08/02 05:56:27;;;;;;;4.28;2.63;;;13.60;99.90;;;;;;5015746;28;20373;-72
2023/08/02 05:58:52;;;;;;;3.90;2.65;;;13.60;99.90;;;;;;5015612;28;20034;-73
2023/08/02 06:01:18;;;;;;;4.13;2.50;;;13.60;99.90;;;;;;5014926;28;20495;-72
2023/08/02 06:03:44;;;;;;;4.15;2.53;;;13.70;99.90;;;;;;5015880;28;20028;-72
2023/08/02 06:06:09;;;;;;;3.60;2.38;;;13.80;99.90;;;;;;5015563;28;20030;-72
2023/08/02 06:08:36;;;;;;;3.78;2.28;;;13.80;99.90;;;;;;5015430;28;20038;-72
2023/08/02 06:11:02;;;;;;;3.95;2.53;;;13.90;99.90;;;;;;5014199;28;20038;-73
2023/08/02 06:13:29;;;;;;;5.55;3.28;;;13.90;99.90;;;;;;5015443;28;20714;-72
2023/08/02 06:15:54;;;;;;;3.88;2.40;;;13.90;99.90;;;;;;5014146;28;20057;-72
2023/08/02 06:18:20;;;;;;;3.58;2.38;;;13.90;99.90;;;;;;5015087;28;20061;-72
2023/08/02 06:20:46;;;;;;;3.95;2.30;;;13.90;99.90;;;;;;5014702;28;20025;-72
2023/08/02 06:23:11;;;;;;;2.80;1.95;;;13.90;99.90;;;;;;5014087;28;20080;-72
2023/08/02 06:25:37;;;;;;;3.70;2.40;;;14.00;99.90;;;;;;5015164;28;20503;-73
2023/08/02 06:28:03;;;;;;;3.72;2.20;;;14.00;99.90;;;;;;5015076;28;20478;-73
2023/08/02 06:30:28;;;;;;;4.90;2.58;;;14.10;99.90;;;;;;5015111;28;20041;-72
2023/08/02 06:32:54;;;;;;;3.25;2.28;;;14.10;99.90;;;;;;5015104;28;20030;-72
2023/08/02 06:35:19;;;;;;;3.90;2.70;;;14.20;99.90;;;;;;5015254;28;20037;-72
2023/08/02 06:37:45;;;;;;;4.60;2.72;;;14.20;99.90;;;;;;5015045;28;20038;-72
2023/08/02 06:40:11;;;;;;;4.20;3.00;;;14.20;99.90;;;;;;5015180;28;20049;-72
2023/08/02 06:42:37;;;;;;;4.85;3.15;;;14.20;99.90;;;;;;5015234;28;20017;-72
2023/08/02 06:45:03;;;;;;;4.10;2.50;;;14.30;99.90;;;;;;5014854;28;20476;-72
2023/08/02 06:47:29;;;;;;;4.20;2.65;;;14.30;99.90;;;;;;5014591;28;20061;-72
2023/08/02 06:49:54;;;;;;;4.35;2.50;;;14.40;99.90;;;;;;5014995;28;20074;-73
2023/08/02 06:52:20;;;;;;;4.57;2.80;;;14.40;99.90;;;;;;5015079;28;20034;-73
2023/08/02 06:54:46;;;;;;;4.95;2.95;;;14.50;99.90;;;;;;5014719;28;20476;-72
2023/08/02 06:57:11;;;;;;;4.13;3.00;;;14.50;99.90;;;;;;5014780;28;20531;-72
2023/08/02 06:59:37;;;;;;;5.07;2.70;;;14.60;99.90;;;;;;5014656;28;20492;-72
2023/08/02 07:02:03;;;;;;;4.28;2.63;;;14.60;99.90;;;;;;5013352;28;20443;-72
2023/08/02 07:04:28;;;;;;;2.83;1.80;;;14.60;99.90;;;;;;5014536;28;20032;-72
2023/08/02 07:06:54;;;;;;;3.95;2.38;;;14.70;99.90;;;;;;5014466;28;20064;-73
2023/08/02 07:09:19;;;;;;;3.70;2.50;;;14.80;99.90;;;;;;5014363;28;20050;-72
2023/08/02 07:11:45;;;;;;;4.65;3.10;;;14.90;99.90;;;;;;5014557;28;20030;-72
2023/08/02 07:14:11;;;;;;;4.30;2.65;;;15.00;99.90;;;;;;5014644;28;20160;-72
2023/08/02 07:16:36;;;;;;;3.45;2.40;;;15.00;99.90;;;;;;5014411;28;20068;-72
2023/08/02 07:19:02;;;;;;;3.67;2.60;;;14.90;99.90;;;;;;5014096;28;20116;-72
2023/08/02 07:21:29;;;;;;;4.57;3.00;;;14.90;99.90;;;;;;5014179;28;20034;-73
2023/08/02 07:23:55;;;;;;;3.55;2.42;;;15.00;99.90;;;;;;5014251;28;20026;-72
2023/08/02 07:26:22;;;;;;;5.03;3.00;;;15.00;99.90;;;;;;5014255;28;20022;-72
2023/08/02 07:28:48;;;;;;;3.80;2.65;;;15.00;99.90;;;;;;5014231;28;20026;-72
2023/08/02 07:31:14;;;;;;;3.97;2.55;;;14.90;99.90;;;;;;5013474;28;20396;-72
2023/08/02 07:33:40;;;;;;;4.43;2.42;;;14.90;99.90;;;;;;5013952;28;20080;-72
2023/08/02 07:36:13;;;;;;;3.42;2.25;;;14.90;99.90;;;;;;5012796;28;20022;-72
2023/08/02 07:38:39;;;;;;;3.35;2.25;;;14.90;99.90;;;;;;5013477;28;20132;-73
2023/08/02 07:41:05;;;;;;;5.72;2.55;;;14.90;99.90;;;;;;5014003;28;20453;-72
2023/08/02 07:43:30;;;;;;;3.70;2.45;;;15.00;99.90;;;;;;5014102;28;20412;-72
2023/08/02 07:45:56;;;;;;;4.10;2.65;;;15.00;99.90;;;;;;5013819;28;20026;-72
2023/08/02 07:48:22;;;;;;;3.35;2.35;;;15.10;99.90;;;;;;5014111;28;20034;-72
2023/08/02 07:50:47;;;;;;;4.05;2.78;;;15.10;99.90;;;;;;5014045;28;20092;-72
2023/08/02 07:53:13;;;;;;;3.90;2.45;;;15.20;99.90;;;;;;5012569;28;20076;-72
2023/08/02 07:55:39;;;;;;;6.20;2.88;;;15.20;99.90;;;;;;5012472;28;20033;-72
2023/08/02 07:58:04;;;;;;;4.75;3.10;;;15.30;99.90;;;;;;5012504;28;20034;-72
2023/08/02 08:00:30;;;;;;;4.60;2.92;;;15.30;99.90;;;;;;5013298;28;20030;-72
2023/08/02 08:02:56;;;;;;;5.57;2.97;;;15.30;99.90;;;;;;5013651;28;20033;-72
2023/08/02 08:05:21;;;;;;;4.82;3.10;;;15.40;99.90;;;;;;5013701;28;20026;-72
2023/08/02 08:07:47;;;;;;;5.13;2.83;;;15.40;99.90;;;;;;5013484;28;20037;-72
2023/08/02 08:10:13;;;;;;;4.63;3.10;;;15.60;99.90;;;;;;5013595;28;20033;-72
2023/08/02 08:12:39;;;;;;;4.80;2.90;;;15.70;99.90;;;;;;5013479;28;20029;-72
2023/08/02 08:15:06;;;;;;;3.63;2.17;;;15.80;99.90;;;;;;5013606;28;20088;-72
2023/08/02 08:17:32;;;;;;;3.90;2.78;;;15.80;99.90;;;;;;5013494;28;20033;-72
2023/08/02 08:19:57;;;;;;;3.40;2.25;;;15.90;99.90;;;;;;5014660;28;20090;-72
2023/08/02 08:22:28;;;;;;;5.28;2.72;;;15.90;99.90;;;;;;5014513;28;20023;-72
2023/08/02 08:24:57;;;;;;;4.68;2.13;;;16.00;99.90;;;;;;5013114;28;20022;-72
2023/08/02 08:27:23;;;;;;;3.83;2.50;;;16.00;99.90;;;;;;5014117;28;20034;-72
2023/08/02 08:29:49;;;;;;;3.78;2.03;;;16.10;99.90;;;;;;5013401;28;20518;-72
2023/08/02 08:32:15;;;;;;;4.75;2.10;;;16.20;99.90;;;;;;5012855;28;20490;-72
2023/08/02 08:34:42;;;;;;;4.13;2.25;;;16.30;99.90;;;;;;5013943;28;20030;-72
2023/08/02 08:37:08;;;;;;;3.28;2.00;;;16.40;99.90;;;;;;5013404;28;20034;-72
2023/08/02 08:39:35;;;;;;;3.20;2.20;;;16.40;99.90;;;;;;5013412;28;20025;-72
2023/08/02 08:42:08;;;;;;;4.28;1.88;;;16.40;99.90;;;;;;5013193;28;20492;-72
2023/08/02 08:44:38;;;;;;;2.88;1.90;;;16.50;99.90;;;;;;5017097;28;20104;-72
2023/08/02 08:47:07;;;;;;;3.40;2.20;;;16.60;99.90;;;;;;5017374;28;20029;-72
2023/08/02 08:49:33;;;;;;;3.15;1.90;;;16.60;99.90;;;;;;5017030;28;20148;-72
2023/08/02 08:52:04;;;;;;;3.47;2.50;;;16.70;99.90;;;;;;5017182;28;20025;-72
2023/08/02 08:54:32;;;;;;;4.13;2.20;;;16.70;99.90;;;;;;5017408;28;20045;-73
2023/08/02 08:56:59;;;;;;;3.53;2.22;;;16.70;99.90;;;;;;5016886;28;20446;-72
2023/08/02 08:59:25;;;;;;;4.13;2.33;;;16.70;99.90;;;;;;5016750;28;20033;-72
2023/08/02 09:01:52;;;;;;;3.83;2.10;;;16.80;99.90;;;;;;5016778;28;20510;-72
2023/08/02 09:04:21;;;;;;;3.60;2.20;;;16.80;99.90;;;;;;5016767;28;20036;-72
2023/08/02 09:06:47;;;;;;;3.13;1.85;;;16.90;99.90;;;;;;5017261;28;20100;-72
2023/08/02 09:09:15;;;;;;;2.45;1.60;;;17.00;99.90;;;;;;5016573;28;20491;-72
2023/08/02 09:11:42;;;;;;;3.15;1.80;;;17.10;99.90;;;;;;5016614;28;20060;-72
2023/08/02 09:14:16;;;;;;;4.22;2.05;;;17.10;99.90;;;;;;5017124;28;20034;-72
2023/08/02 09:17:02;;;;;;;3.00;1.80;;;17.10;99.90;;;;;;5016461;28;20369;-72
2023/08/02 09:19:30;;;;;;;4.72;2.40;;;17.10;99.90;;;;;;5016363;28;20034;-72
2023/08/02 09:22:16;;;;;;;2.88;1.80;;;17.20;99.90;;;;;;5016389;28;20045;-72
2023/08/02 09:24:43;;;;;;;2.85;1.75;;;17.20;99.90;;;;;;5016735;28;20021;-72
2023/08/02 09:27:14;;;;;;;4.25;1.85;;;17.30;99.90;;;;;;5016291;28;20046;-72
2023/08/02 09:29:49;;;;;;;3.03;1.70;;;17.30;99.90;;;;;;5016273;28;20037;-72
2023/08/02 09:32:22;;;;;;;4.55;2.40;;;17.40;99.90;;;;;;5016267;28;20361;-72
2023/08/02 09:34:53;;;;;;;4.75;2.95;;;17.30;99.90;;;;;;5016443;28;20391;-72
2023/08/02 09:37:29;;;;;;;3.83;2.53;;;17.30;99.90;;;;;;5016152;28;20026;-72
2023/08/02 09:39:55;;;;;;;3.80;2.75;;;17.30;99.90;;;;;;5016376;28;20022;-72
2023/08/02 09:42:25;;;;;;;7.57;3.50;;;17.30;99.90;;;;;;5016583;28;20357;-72
2023/08/02 09:45:00;;;;;;;5.38;2.80;;;17.30;99.90;;;;;;5015888;28;20076;-72
2023/08/02 09:47:27;;;;;;;6.50;2.58;;;17.20;99.90;;;;;;5015943;28;20037;-72
2023/08/02 09:50:03;;;;;;;3.30;2.20;;;17.20;99.90;;;;;;5014783;28;20053;-72
2023/08/02 09:52:29;;;;;;;3.30;2.13;;;17.30;99.90;;;;;;5015881;28;20022;-72
2023/08/02 09:54:54;;;;;;;2.42;1.73;;;17.30;99.90;;;;;;5014896;28;20034;-72
2023/08/02 09:57:28;;;;;;;5.20;2.55;;;17.20;99.90;;;;;;5015371;28;20030;-72
2023/08/02 09:59:57;;;;;;;2.85;1.90;;;17.30;99.90;;;;;;5015617;28;20022;-72
2023/08/02 10:02:27;;;;;;;3.50;2.20;;;17.30;99.90;;;;;;5014323;28;20036;-72
2023/08/02 10:04:57;;;;;;;3.67;2.40;;;17.40;99.90;;;;;;5016000;28;20018;-72
2023/08/02 10:07:36;;;;;;;5.72;2.75;;;17.40;99.90;;;;;;5015672;28;20026;-73
2023/08/02 10:10:18;;;;;;;4.55;1.88;;;17.50;99.90;;;;;;5015566;28;20096;-72
2023/08/02 10:12:48;;;;;;;3.08;1.77;;;17.50;99.90;;;;;;5015609;28;20049;-72
2023/08/02 10:15:14;;;;;;;3.83;2.03;;;17.60;99.90;;;;;;5015751;28;20018;-72
2023/08/02 10:17:40;;;;;;;2.60;1.70;;;17.70;99.90;;;;;;5015691;28;20041;-72
2023/08/02 10:20:06;;;;;;;3.05;1.50;;;17.70;99.90;;;;;;5014120;28;20030;-72
2023/08/02 10:22:33;;;;;;;2.88;1.80;;;17.70;99.90;;;;;;5014071;28;20034;-72
2023/08/02 10:25:00;;;;;;;2.92;1.67;;;17.70;99.90;;;;;;5015749;28;20045;-72
2023/08/02 10:27:26;;;;;;;4.13;2.47;;;17.70;99.90;;;;;;5015005;28;20022;-72
2023/08/02 10:29:53;;;;;;;14.50;6.60;;;17.70;99.90;;;;;;5015013;28;20057;-72
2023/08/02 10:32:21;;;;;;;11.55;5.57;;;17.70;99.90;;;;;;5014696;28;20129;-72
2023/08/02 10:34:49;;;;;;;4.00;2.05;;;17.70;99.90;;;;;;5013837;28;20508;-72
2023/08/02 10:37:16;;;;;;;3.92;2.13;;;17.80;99.90;;;;;;5014718;28;20022;-72
2023/08/02 10:39:47;;;;;;;4.25;2.25;;;17.80;99.90;;;;;;5015015;28;20050;-72
2023/08/02 10:42:21;;;;;;;4.28;2.45;;;17.90;99.90;;;;;;5014865;28;20026;-72
2023/08/02 10:44:56;;;;;;;4.10;2.60;;;18.00;99.90;;;;;;5015183;28;20538;-72
2023/08/02 10:47:34;;;;;;;3.20;2.15;;;18.20;99.90;;;;;;5014753;28;20477;-72
2023/08/02 10:50:02;;;;;;;4.20;1.88;;;18.30;99.90;;;;;;5014950;28;20388;-72
2023/08/02 10:52:33;;;;;;;2.70;1.80;;;18.40;99.90;;;;;;5014822;28;20437;-72
2023/08/02 10:55:03;;;;;;;;;;;18.60;99.90;;;;;;5015418;28;20032;-72
2023/08/02 10:57:28;;;;;;;4.82;1.92;;;18.80;99.90;;;;;;5014490;28;19918;-72
2023/08/02 10:59:54;;;;;;;2.85;1.80;;;18.90;99.90;;;;;;4980915;28;20563;-72
2023/08/02 11:02:20;;;;;;;2.90;1.60;;;18.90;99.90;;;;;;5014524;28;20484;-72
2023/08/02 11:04:47;;;;;;;4.72;2.60;;;19.00;99.90;;;;;;5014495;28;20057;-72
2023/08/02 11:07:18;;;;;;;3.60;2.45;;;19.10;99.90;;;;;;5014353;28;20411;-72
2023/08/02 11:09:44;;;;;;;;;;;19.20;99.90;;;;;;5014870;28;20495;-72
2023/08/02 11:12:18;;;;;;;3.85;2.35;;;19.30;99.90;;;;;;5014590;28;19905;-72
2023/08/02 11:14:45;;;;;;;2.97;1.90;;;19.40;99.90;;;;;;5014435;28;20053;-72
2023/08/02 11:17:15;;;;;;;3.78;2.42;;;19.50;99.90;;;;;;5012992;28;20034;-73
2023/08/02 11:19:45;;;;;;;4.03;2.05;;;19.80;99.90;;;;;;5014336;28;20361;-72
2023/08/02 11:22:11;;;;;;;4.22;2.63;;;20.00;99.90;;;;;;5014490;28;20104;-72
2023/08/02 11:24:46;;;;;;;3.15;2.03;;;20.10;99.90;;;;;;5014425;28;20037;-72
2023/08/02 11:27:19;;;;;;;3.30;1.90;;;20.20;99.90;;;;;;5014024;28;20025;-72
2023/08/02 11:30:01;;;;;;;2.90;1.80;;;20.20;99.90;;;;;;5014070;28;20426;-73
2023/08/02 11:32:28;;;;;;;2.38;1.70;;;20.30;99.90;;;;;;5014310;28;20459;-73
2023/08/02 11:34:54;;;;;;;4.03;1.63;;;20.40;99.90;;;;;;5014009;28;20045;-73
2023/08/02 11:37:20;;;;;;;5.03;1.95;;;20.50;99.90;;;;;;5013858;28;20022;-72
2023/08/02 11:39:52;;;;;;;2.88;1.73;;;20.60;99.90;;;;;;5013923;28;20076;-73
2023/08/02 11:42:18;;;;;;;3.83;1.50;;;20.70;99.90;;;;;;5013934;28;20037;-73
2023/08/02 11:44:44;;;;;;;1.95;1.25;;;20.90;99.90;;;;;;5014403;28;20026;-73
2023/08/02 11:47:10;;;;;;;3.15;1.42;;;21.00;99.90;;;;;;5014078;28;20018;-73
2023/08/02 11:49:57;;;;;;;3.47;1.48;;;21.20;99.90;;;;;;5013895;28;20077;-73
2023/08/02 11:52:31;;;;;;;2.10;1.15;;;21.30;99.90;;;;;;5013800;28;20101;-73
2023/08/02 11:54:58;;;;;;;1.92;1.10;;;21.40;99.90;;;;;;5013826;28;20022;-73
2023/08/02 11:57:24;;;;;;;4.70;1.38;;;21.50;99.90;;;;;;5013628;28;20022;-73
2023/08/02 11:59:54;;;;;;;2.33;1.10;;;21.60;99.90;;;;;;5013714;28;20026;-73
2023/08/02 12:02:29;;;;;;;1.80;1.17;;;21.70;99.90;;;;;;5013968;28;20022;-73
2023/08/02 12:04:55;;;;;;;3.22;1.38;;;21.90;99.90;;;;;;5013717;28;20045;-73
2023/08/02 12:07:28;;;;;;;2.10;1.30;;;22.00;99.90;;;;;;5013576;28;20022;-73
2023/08/02 12:09:54;;;;;;;2.58;1.40;;;22.20;99.90;;;;;;5013678;28;20026;-73
2023/08/02 12:12:20;;;;;;;3.97;1.50;;;22.30;99.90;;;;;;5014292;28;20022;-73
2023/08/02 12:14:46;;;;;;;2.40;1.33;;;22.50;99.90;;;;;;5013534;28;20068;-73
2023/08/02 12:17:23;;;;;;;3.40;1.65;;;22.60;99.90;;;;;;5013418;28;20040;-75
2023/08/02 12:19:50;;;;;;;2.72;1.60;;;22.80;99.90;;;;;;5017566;28;20053;-74
2023/08/02 12:22:17;;;;;;;2.28;1.27;;;22.90;99.90;;;;;;5016340;28;20026;-74
2023/08/02 12:24:43;;;;;;;3.33;1.40;;;22.90;99.90;;;;;;5017455;28;20025;-74
2023/08/02 12:27:17;;;;;;;2.40;1.40;;;23.00;99.90;;;;;;5017362;28;20041;-73
2023/08/02 12:29:43;;;;;;;2.00;1.23;;;23.00;99.90;;;;;;5017406;28;20014;-75
2023/08/02 12:32:29;;;;;;;2.50;1.48;;;23.20;99.90;;;;;;5017621;28;20057;-74
2023/08/02 12:34:55;;;;;;;2.20;1.40;;;23.20;99.90;;;;;;5016024;28;20503;-75
2023/08/02 12:37:21;;;;;;;4.75;1.48;;;23.20;99.90;;;;;;5016004;28;20061;-75
2023/08/02 12:39:46;;;;;;;3.08;1.35;;;23.20;99.90;;;;;;5017574;28;20489;-74
2023/08/02 12:42:12;;;;;;;3.22;1.58;;;23.20;99.90;;;;;;4999635;28;20053;-74
2023/08/02 12:44:37;;;;;;;1.98;1.35;;;23.30;99.90;;;;;;5015860;28;20225;-74
2023/08/02 12:47:03;;;;;;;2.60;1.50;;;23.50;99.90;;;;;;5017388;28;20026;-74